createdAt,value
2018-08-11T00:03:31.514Z,72.20
2018-08-11T00:08:35.635Z,72.50
2018-08-11T00:13:39.653Z,72.20
2018-08-11T00:18:43.868Z,72.30
2018-08-11T00:23:48.696Z,73.10
2018-08-11T00:28:53.813Z,72.70
2018-08-11T00:33:57.723Z,72.90
2018-08-11T00:39:01.787Z,72.80
2018-08-11T00:44:06.893Z,73.60
2018-08-11T00:49:10.958Z,73.30
2018-08-11T00:54:16.467Z,73.00
2018-08-11T00:59:21.283Z,73.30
2018-08-11T01:04:25.974Z,73.80
2018-08-11T01:09:30.091Z,74.20
2018-08-11T01:14:34.567Z,74.00
2018-08-11T01:19:39.584Z,74.40
2018-08-11T01:24:44.111Z,74.10
2018-08-11T01:29:49.110Z,74.30
2018-08-11T01:34:52.902Z,75.30
2018-08-11T01:39:57.874Z,75.50
2018-08-11T01:45:01.715Z,75.10
2018-08-11T01:50:07.744Z,75.40
2018-08-11T01:55:15.571Z,76.10
2018-08-11T02:00:21.674Z,75.70
2018-08-11T02:05:26.808Z,76.20
2018-08-11T02:10:31.119Z,75.50
2018-08-11T02:15:36.894Z,75.70
2018-08-11T02:20:40.979Z,75.70
2018-08-11T02:25:47.394Z,76.00
2018-08-11T02:30:56.365Z,75.30
2018-08-11T02:36:00.483Z,75.40
2018-08-11T02:41:04.263Z,75.00
2018-08-11T02:46:08.707Z,75.60
2018-08-11T02:51:12.807Z,75.70
2018-08-11T02:56:16.692Z,76.10
2018-08-11T03:01:20.578Z,76.10
2018-08-11T03:06:25.057Z,76.50
2018-08-11T03:11:29.678Z,75.90
2018-08-11T03:16:34.325Z,76.20
2018-08-11T03:21:38.527Z,76.20
2018-08-11T03:26:43.332Z,76.00
2018-08-11T03:31:47.925Z,76.40
2018-08-11T03:36:53.737Z,75.80
2018-08-11T03:41:58.521Z,76.20
2018-08-11T03:47:03.305Z,75.50
2018-08-11T03:52:07.285Z,76.00
2018-08-11T03:57:11.704Z,76.40
2018-08-11T04:02:15.480Z,75.60
2018-08-11T04:07:19.656Z,76.10
2018-08-11T04:12:25.290Z,76.00
2018-08-11T04:17:42.147Z,76.30
2018-08-11T04:22:46.743Z,76.40
2018-08-11T04:27:50.894Z,76.50
2018-08-11T04:32:54.929Z,76.20
2018-08-11T04:37:58.837Z,76.40
2018-08-11T04:43:02.702Z,76.10
2018-08-11T04:48:08.244Z,76.10
2018-08-11T04:53:13.903Z,76.60
2018-08-11T04:58:18.608Z,76.80
2018-08-11T05:03:22.508Z,76.70
2018-08-11T05:08:26.197Z,76.10
2018-08-11T05:13:30.165Z,76.60
2018-08-11T05:18:34.634Z,76.60
2018-08-11T05:23:38.103Z,76.30
2018-08-11T05:28:43.122Z,76.40
2018-08-11T05:33:47.134Z,76.70
2018-08-11T05:38:52.638Z,77.20
2018-08-11T05:43:56.496Z,76.60
2018-08-11T05:49:01.010Z,77.10
2018-08-11T05:54:05.487Z,77.00
2018-08-11T05:59:09.402Z,77.30
2018-08-11T06:04:14.483Z,77.40
2018-08-11T06:09:19.241Z,77.60
2018-08-11T06:14:23.519Z,77.00
2018-08-11T06:19:27.675Z,77.30
2018-08-11T06:24:31.486Z,77.40
2018-08-11T06:29:37.370Z,76.80
2018-08-11T06:34:41.371Z,76.70
2018-08-11T06:39:45.247Z,77.00
2018-08-11T06:44:49.862Z,77.10
2018-08-11T06:49:55.424Z,76.70
2018-08-11T06:55:01.107Z,76.50
2018-08-11T07:00:06.384Z,76.70
2018-08-11T07:05:10.434Z,76.50
2018-08-11T07:10:15.357Z,76.40
2018-08-11T07:15:19.920Z,76.50
2018-08-11T07:20:23.960Z,76.30
2018-08-11T07:25:29.409Z,76.80
2018-08-11T07:30:35.582Z,76.70
2018-08-11T07:35:38.730Z,76.60
2018-08-11T07:40:41.896Z,76.60
2018-08-11T07:45:45.991Z,76.30
2018-08-11T07:50:50.220Z,76.50
2018-08-11T07:55:55.209Z,76.60
2018-08-11T08:00:59.975Z,75.70
2018-08-11T08:06:05.002Z,76.90
2018-08-11T08:11:09.350Z,77.30
2018-08-11T08:16:13.624Z,77.20
2018-08-11T08:21:19.481Z,77.20
2018-08-11T08:26:28.770Z,77.10
2018-08-11T08:31:33.348Z,75.20
2018-08-11T08:36:38.124Z,74.50
2018-08-11T08:41:43.009Z,73.70
2018-08-11T08:46:50.051Z,72.20
2018-08-11T08:51:59.348Z,70.80
2018-08-11T08:57:04.314Z,69.30
2018-08-11T09:02:07.430Z,69.00
2018-08-11T09:07:10.565Z,68.10
2018-08-11T09:12:13.725Z,68.10
2018-08-11T09:17:16.869Z,68.10
2018-08-11T09:22:20.029Z,67.90
2018-08-11T09:27:23.209Z,66.80
2018-08-11T09:32:26.376Z,67.10
2018-08-11T09:37:29.509Z,65.80
2018-08-11T09:42:32.670Z,64.30
2018-08-11T09:47:35.855Z,62.60
2018-08-11T09:52:38.980Z,61.50
2018-08-11T09:57:42.220Z,60.70
2018-08-11T10:02:45.351Z,59.50
2018-08-11T10:07:48.525Z,57.20
2018-08-11T10:12:51.666Z,56.90
2018-08-11T10:17:54.792Z,56.70
2018-08-11T10:22:57.937Z,56.20
2018-08-11T10:28:04.715Z,55.20
2018-08-11T10:33:17.065Z,53.70
2018-08-11T10:38:23.946Z,53.40
2018-08-11T10:43:28.100Z,52.80
2018-08-11T10:48:32.149Z,53.20
2018-08-11T10:53:36.059Z,53.80
2018-08-11T10:58:40.395Z,54.10
2018-08-11T11:03:51.492Z,52.40
2018-08-11T11:08:57.197Z,51.80
2018-08-11T11:14:04.794Z,51.40
2018-08-11T11:19:08.913Z,52.30
2018-08-11T11:24:13.814Z,52.60
2018-08-11T11:29:19.099Z,50.70
2018-08-11T11:34:24.314Z,49.70
2018-08-11T11:39:30.038Z,50.70
2018-08-11T11:44:34.944Z,51.70
2018-08-11T11:49:39.772Z,51.20
2018-08-11T11:54:43.963Z,49.70
2018-08-11T11:59:52.139Z,49.70
2018-08-11T12:04:57.718Z,48.90
2018-08-11T12:10:08.352Z,48.70
2018-08-11T12:15:14.735Z,49.10
2018-08-11T12:20:21.509Z,48.80
2018-08-11T12:25:31.176Z,47.60
2018-08-11T12:30:35.422Z,48.30
2018-08-11T12:35:44.598Z,48.50
2018-08-11T12:40:50.817Z,48.40
2018-08-11T12:45:57.938Z,47.10
2018-08-11T12:51:01.945Z,44.70
2018-08-11T12:56:09.499Z,44.00
2018-08-11T13:01:16.007Z,43.10
2018-08-11T13:06:27.824Z,42.90
2018-08-11T13:11:39.082Z,43.50
2018-08-11T13:16:48.030Z,42.10
2018-08-11T13:21:58.870Z,43.10
2018-08-11T13:27:04.311Z,43.50
2018-08-11T13:32:10.505Z,43.00
2018-08-11T13:37:15.356Z,41.90
2018-08-11T13:42:19.791Z,41.50
2018-08-11T13:47:25.358Z,42.30
2018-08-11T13:52:29.705Z,42.10
2018-08-11T13:57:35.409Z,42.10
2018-08-11T14:02:40.791Z,41.30
2018-08-11T14:07:44.942Z,41.70
2018-08-11T14:12:52.982Z,41.60
2018-08-11T14:17:56.609Z,41.20
2018-08-11T14:23:00.917Z,41.10
2018-08-11T14:28:09.367Z,40.40
2018-08-11T14:33:12.998Z,41.30
2018-08-11T14:38:18.191Z,40.60
2018-08-11T14:43:21.831Z,40.80
2018-08-11T14:48:26.010Z,42.80
2018-08-11T14:53:31.595Z,40.50
2018-08-11T14:58:35.263Z,40.40
2018-08-11T15:03:39.693Z,41.20
2018-08-11T15:08:46.656Z,40.80
2018-08-11T15:13:50.454Z,41.50
2018-08-11T15:18:54.840Z,40.60
2018-08-11T15:24:00.784Z,40.20
2018-08-11T15:29:05.536Z,40.00
2018-08-11T15:34:10.029Z,40.20
2018-08-11T15:39:14.333Z,40.40
2018-08-11T15:44:19.032Z,40.80
2018-08-11T15:49:23.226Z,40.70
2018-08-11T15:54:29.847Z,40.90
2018-08-11T15:59:34.565Z,40.70
2018-08-11T16:04:40.050Z,41.40
2018-08-11T16:09:44.735Z,40.10
2018-08-11T16:14:54.308Z,39.80
2018-08-11T16:19:59.613Z,39.80
2018-08-11T16:25:15.852Z,39.50
2018-08-11T16:30:22.504Z,39.60
2018-08-11T16:35:28.776Z,39.90
2018-08-11T16:40:33.543Z,39.80
2018-08-11T16:45:39.115Z,39.10
2018-08-11T16:56:50.780Z,39.80
2018-08-11T17:01:53.965Z,39.90
2018-08-11T17:06:57.212Z,40.20
2018-08-11T17:12:00.360Z,40.30
2018-08-11T17:17:03.528Z,40.50
2018-08-11T17:22:06.741Z,40.90
2018-08-11T17:27:09.999Z,39.80
2018-08-11T17:32:13.093Z,39.50
2018-08-11T17:37:16.270Z,39.70
2018-08-11T17:42:19.493Z,40.20
2018-08-11T17:47:22.649Z,39.90
2018-08-11T17:52:25.848Z,39.60
2018-08-11T17:57:29.090Z,39.70
2018-08-11T18:02:32.224Z,40.10
2018-08-11T18:07:35.376Z,40.90
2018-08-11T18:12:38.542Z,41.50
2018-08-11T18:17:41.709Z,42.00
2018-08-11T18:22:45.058Z,42.50
2018-08-11T18:27:48.394Z,43.60
2018-08-11T18:32:51.774Z,45.00
2018-08-11T18:37:55.483Z,45.80
2018-08-11T18:42:59.199Z,46.30
2018-08-11T18:48:03.049Z,47.50
2018-08-11T18:53:06.947Z,51.90
2018-08-11T18:58:10.622Z,53.00
2018-08-11T19:03:14.731Z,53.70
2018-08-11T19:08:19.328Z,53.70
2018-08-11T19:13:24.699Z,53.70
2018-08-11T19:18:32.884Z,53.50
2018-08-11T19:23:38.887Z,53.50
2018-08-11T19:28:50.803Z,53.80
2018-08-11T19:33:57.315Z,53.90
2018-08-11T19:39:05.126Z,54.20
2018-08-11T19:44:09.761Z,53.50
2018-08-11T19:49:14.757Z,53.20
2018-08-11T19:54:19.615Z,53.10
2018-08-11T19:59:23.806Z,53.40
2018-08-11T20:04:32.145Z,53.60
2018-08-11T20:09:36.835Z,53.50
2018-08-11T20:14:42.022Z,53.50
2018-08-11T20:19:46.261Z,53.60
2018-08-11T20:24:54.384Z,53.70
2018-08-11T20:30:01.234Z,53.80
2018-08-11T20:35:06.047Z,53.80
2018-08-11T20:40:11.784Z,54.10
2018-08-11T20:45:16.787Z,54.20
2018-08-11T20:50:23.900Z,54.40
2018-08-11T20:55:29.050Z,54.80
2018-08-11T21:00:34.417Z,55.00
2018-08-11T21:05:40.036Z,54.90
2018-08-11T21:10:51.587Z,55.20
2018-08-11T21:15:56.971Z,55.40
2018-08-11T21:21:02.585Z,55.70
2018-08-11T21:26:14.912Z,56.00
2018-08-11T21:31:21.600Z,56.00
2018-08-11T21:36:27.723Z,56.20
2018-08-11T21:41:34.449Z,56.30
2018-08-11T21:46:41.169Z,56.50
2018-08-11T21:51:51.715Z,56.40
2018-08-11T21:56:58.961Z,56.20
2018-08-11T22:02:05.011Z,56.10
2018-08-11T22:07:19.900Z,56.20
2018-08-11T22:12:31.394Z,56.30
2018-08-11T22:17:40.934Z,56.50
2018-08-11T22:22:49.210Z,56.70
2018-08-11T22:27:56.897Z,56.60
2018-08-11T22:33:03.438Z,56.60
2018-08-11T22:38:09.097Z,57.00
2018-08-11T22:43:15.514Z,57.40
2018-08-11T22:48:33.999Z,57.50
2018-08-11T22:53:40.014Z,57.50
2018-08-11T22:58:47.288Z,57.30
2018-08-11T23:03:57.520Z,57.40
2018-08-11T23:09:03.048Z,57.30
2018-08-11T23:14:07.910Z,57.60
2018-08-11T23:19:14.701Z,57.80
2018-08-11T23:24:20.082Z,57.90
2018-08-11T23:29:27.254Z,58.70
2018-08-11T23:34:35.756Z,58.30
2018-08-11T23:39:47.164Z,58.40
2018-08-11T23:44:53.281Z,58.90
2018-08-11T23:50:01.183Z,59.20
2018-08-11T23:55:13.527Z,59.40
